Time;durP1;ratioP1;P1;durP2;ratioP2;P2;SDS_P1;SDS_P2;PMS_P1;PMS_P2;Temp;Humidity;BMP_temperature;BMP_pressure;BME280_temperature;BME280_humidity;BME280_pressure;Samples;Min_cycle;Max_cycle;Signal;HPM_P1;HPM_P2
2023/06/25 00:02:27;;;;;;;;;13.50;13.00;;;;;;;;119698;1193;25403;-62
2023/06/25 00:04:56;;;;;;;;;14.00;11.00;;;;;;;;119691;1193;25784;-63
2023/06/25 00:07:24;;;;;;;;;14.00;13.50;;;;;;;;119687;1193;25188;-62
2023/06/25 00:09:54;;;;;;;;;13.50;11.50;;;;;;;;119681;1193;25030;-63
2023/06/25 00:12:23;;;;;;;;;16.33;13.00;;;;;;;;119669;1193;25526;-63
2023/06/25 00:14:51;;;;;;;;;14.00;10.50;;;;;;;;119663;1193;25718;-62
2023/06/25 00:17:21;;;;;;;;;16.00;14.33;;;;;;;;119816;1192;25180;-62
2023/06/25 00:19:49;;;;;;;;;17.00;14.00;;;;;;;;119851;1192;24977;-62
2023/06/25 00:22:18;;;;;;;;;15.00;15.00;;;;;;;;119505;1192;24790;-63
2023/06/25 00:24:46;;;;;;;;;13.00;11.67;;;;;;;;119765;1192;25020;-63
2023/06/25 00:27:14;;;;;;;;;10.00;10.00;;;;;;;;119717;1185;25404;-63
2023/06/25 00:29:43;;;;;;;;;19.33;15.33;;;;;;;;119698;1185;24942;-63
2023/06/25 00:32:13;;;;;;;;;16.00;15.00;;;;;;;;119714;1192;25601;-63
2023/06/25 00:34:42;;;;;;;;;16.00;15.00;;;;;;;;119495;1185;24754;-62
2023/06/25 00:37:17;;;;;;;;;11.00;11.00;;;;;;;;119703;1193;25800;-63
2023/06/25 00:39:46;;;;;;;;;12.00;10.50;;;;;;;;119455;1193;25753;-62
2023/06/25 00:42:15;;;;;;;;;16.00;11.50;;;;;;;;119700;1193;24961;-62
2023/06/25 00:44:44;;;;;;;;;14.00;10.33;;;;;;;;119460;1193;25209;-63
2023/06/25 00:47:16;;;;;;;;;11.25;11.25;;;;;;;;119868;1183;24828;-62
2023/06/25 00:49:46;;;;;;;;;11.67;10.00;;;;;;;;119489;1186;24831;-62
2023/06/25 00:52:15;;;;;;;;;9.75;9.25;;;;;;;;119498;1192;25716;-63
2023/06/25 00:54:44;;;;;;;;;12.00;12.00;;;;;;;;119472;1192;25156;-62
2023/06/25 00:57:15;;;;;;;;;12.50;12.50;;;;;;;;119840;1184;25197;-62
2023/06/25 00:59:44;;;;;;;;;14.00;11.00;;;;;;;;119685;1189;25300;-63
2023/06/25 01:02:25;;;;;;;;;12.67;12.33;;;;;;;;119458;1193;24861;-62
2023/06/25 01:05:00;;;;;;;;;16.67;12.00;;;;;;;;119853;1183;25580;-63
2023/06/25 01:07:28;;;;;;;;;12.50;12.50;;;;;;;;119769;1192;24911;-63
2023/06/25 01:09:57;;;;;;;;;17.67;14.00;;;;;;;;119464;1193;25384;-62
2023/06/25 01:12:25;;;;;;;;;14.00;13.33;;;;;;;;119470;1193;25099;-62
2023/06/25 01:14:54;;;;;;;;;14.00;10.67;;;;;;;;119587;1184;25540;-62
2023/06/25 01:17:23;;;;;;;;;11.00;10.00;;;;;;;;119878;1192;25213;-63
2023/06/25 01:19:51;;;;;;;;;13.50;13.50;;;;;;;;119799;1192;25197;-62
2023/06/25 01:22:32;;;;;;;;;13.50;11.50;;;;;;;;119869;1188;25418;-62
2023/06/25 01:25:00;;;;;;;;;14.00;13.25;;;;;;;;119852;1192;24719;-62
2023/06/25 01:27:29;;;;;;;;;11.50;11.50;;;;;;;;119885;1184;25167;-62
2023/06/25 01:29:57;;;;;;;;;11.00;11.00;;;;;;;;119870;1189;24754;-62
2023/06/25 01:32:26;;;;;;;;;13.00;12.00;;;;;;;;119901;1183;25327;-62
2023/06/25 01:34:54;;;;;;;;;14.00;12.00;;;;;;;;119913;1188;24713;-62
2023/06/25 01:37:22;;;;;;;;;14.00;9.50;;;;;;;;119534;1192;25655;-62
2023/06/25 01:39:54;;;;;;;;;13.33;12.67;;;;;;;;119887;1192;25294;-62
2023/06/25 01:42:22;;;;;;;;;12.00;11.67;;;;;;;;119855;1189;24685;-62
2023/06/25 01:44:50;;;;;;;;;15.00;13.00;;;;;;;;119502;1185;24712;-62
2023/06/25 01:47:19;;;;;;;;;12.67;10.00;;;;;;;;119861;1192;25596;-61
2023/06/25 01:49:47;;;;;;;;;17.50;13.75;;;;;;;;119454;1192;24927;-62
2023/06/25 01:52:16;;;;;;;;;10.67;7.67;;;;;;;;119887;1184;25543;-62
2023/06/25 01:54:45;;;;;;;;;13.50;10.50;;;;;;;;119937;1188;25296;-62
2023/06/25 01:57:13;;;;;;;;;14.00;11.00;;;;;;;;119604;1185;25213;-62
2023/06/25 01:59:42;;;;;;;;;12.50;11.50;;;;;;;;119869;1192;24870;-62
2023/06/25 02:02:10;;;;;;;;;9.00;8.67;;;;;;;;119868;1192;25340;-62
2023/06/25 02:04:38;;;;;;;;;11.50;8.50;;;;;;;;119881;1192;25080;-62
2023/06/25 02:07:07;;;;;;;;;17.00;14.00;;;;;;;;119864;1180;25313;-61
2023/06/25 02:09:35;;;;;;;;;16.50;12.00;;;;;;;;119890;1188;25610;-61
2023/06/25 02:12:04;;;;;;;;;10.50;10.50;;;;;;;;119888;1192;25522;-62
2023/06/25 02:14:33;;;;;;;;;13.75;10.00;;;;;;;;119919;1188;24960;-62
2023/06/25 02:17:01;;;;;;;;;10.00;9.00;;;;;;;;119842;1192;25524;-61
2023/06/25 02:19:29;;;;;;;;;13.00;13.00;;;;;;;;119885;1188;25754;-62
2023/06/25 02:21:58;;;;;;;;;12.00;10.00;;;;;;;;119667;1180;24855;-61
2023/06/25 02:24:26;;;;;;;;;12.00;11.00;;;;;;;;119884;1192;24863;-62
2023/06/25 02:26:54;;;;;;;;;10.67;10.00;;;;;;;;119921;1188;25308;-62
2023/06/25 02:29:23;;;;;;;;;6.33;6.33;;;;;;;;119945;1179;25541;-62
2023/06/25 02:31:51;;;;;;;;;13.00;12.00;;;;;;;;119841;1192;25316;-62
2023/06/25 02:34:20;;;;;;;;;12.33;12.33;;;;;;;;119879;1189;24855;-62
2023/06/25 02:36:50;;;;;;;;;14.50;10.00;;;;;;;;119686;1185;24738;-62
2023/06/25 02:39:18;;;;;;;;;16.33;13.00;;;;;;;;119861;1184;25514;-61
2023/06/25 02:41:46;;;;;;;;;16.67;11.00;;;;;;;;119467;1192;25443;-61
2023/06/25 02:44:15;;;;;;;;;10.25;10.25;;;;;;;;119817;1188;25449;-62
2023/06/25 02:46:43;;;;;;;;;12.33;10.67;;;;;;;;119893;1188;24805;-62
2023/06/25 02:49:11;;;;;;;;;16.00;13.50;;;;;;;;119862;1192;24698;-62
2023/06/25 02:51:40;;;;;;;;;14.75;11.00;;;;;;;;119703;1192;24953;-62
2023/06/25 02:54:08;;;;;;;;;13.50;10.00;;;;;;;;119822;1189;24754;-62
2023/06/25 02:56:36;;;;;;;;;14.00;12.00;;;;;;;;119878;1188;25317;-62
2023/06/25 02:59:05;;;;;;;;;10.00;9.33;;;;;;;;119882;1184;24720;-62
2023/06/25 03:01:33;;;;;;;;;13.00;10.50;;;;;;;;119872;1183;25657;-61
2023/06/25 03:04:01;;;;;;;;;11.00;10.00;;;;;;;;119877;1192;25078;-61
2023/06/25 03:06:29;;;;;;;;;8.50;7.50;;;;;;;;119859;1191;25261;-61
2023/06/25 03:08:58;;;;;;;;;10.50;10.00;;;;;;;;119870;1192;25506;-61
2023/06/25 03:11:26;;;;;;;;;9.75;9.75;;;;;;;;119863;1192;25050;-61
2023/06/25 03:13:54;;;;;;;;;8.00;8.00;;;;;;;;119861;1192;25116;-61
2023/06/25 03:16:24;;;;;;;;;8.67;8.67;;;;;;;;119973;1188;25535;-62
2023/06/25 03:18:53;;;;;;;;;11.00;11.00;;;;;;;;119877;1192;25387;-62
2023/06/25 03:21:21;;;;;;;;;10.67;10.33;;;;;;;;119885;1183;24749;-62
2023/06/25 03:23:49;;;;;;;;;14.50;10.00;;;;;;;;119888;1192;24811;-60
2023/06/25 03:26:17;;;;;;;;;7.00;7.00;;;;;;;;119900;1192;25343;-61
2023/06/25 03:28:46;;;;;;;;;14.75;11.00;;;;;;;;119888;1183;24998;-60
2023/06/25 03:31:14;;;;;;;;;11.00;10.00;;;;;;;;119882;1192;24698;-60
2023/06/25 03:33:42;;;;;;;;;14.67;9.67;;;;;;;;119889;1192;25181;-60
2023/06/25 03:36:11;;;;;;;;;12.00;11.00;;;;;;;;119472;1189;25642;-61
2023/06/25 03:38:39;;;;;;;;;9.00;8.25;;;;;;;;119834;1192;24813;-60
2023/06/25 03:41:07;;;;;;;;;9.00;9.00;;;;;;;;119856;1192;25134;-60
2023/06/25 03:43:36;;;;;;;;;8.33;8.00;;;;;;;;119464;1193;25188;-60
2023/06/25 03:46:04;;;;;;;;;9.00;8.00;;;;;;;;119830;1192;25485;-60
2023/06/25 03:48:32;;;;;;;;;12.00;9.67;;;;;;;;119893;1192;24759;-60
2023/06/25 03:51:01;;;;;;;;;10.25;8.75;;;;;;;;119882;1179;24831;-60
2023/06/25 03:53:29;;;;;;;;;11.00;8.33;;;;;;;;119867;1192;25533;-61
2023/06/25 03:55:58;;;;;;;;;10.00;10.00;;;;;;;;119485;1193;24857;-60
2023/06/25 03:58:26;;;;;;;;;15.00;11.00;;;;;;;;119739;1192;25162;-60
2023/06/25 04:00:54;;;;;;;;;11.00;10.00;;;;;;;;119755;1192;25148;-60
2023/06/25 04:03:24;;;;;;;;;9.50;9.50;;;;;;;;119897;1184;24704;-60
2023/06/25 04:05:52;;;;;;;;;14.67;11.33;;;;;;;;119876;1184;25117;-60
2023/06/25 04:08:20;;;;;;;;;10.00;9.50;;;;;;;;119794;1192;24883;-60
2023/06/25 04:10:49;;;;;;;;;10.33;9.33;;;;;;;;119822;1191;24996;-60
2023/06/25 04:13:17;;;;;;;;;14.50;13.50;;;;;;;;119882;1183;25537;-60
2023/06/25 04:15:45;;;;;;;;;15.00;11.00;;;;;;;;119863;1192;26465;-60
2023/06/25 04:18:14;;;;;;;;;13.50;10.00;;;;;;;;119693;1185;25500;-61
2023/06/25 04:20:42;;;;;;;;;11.00;9.50;;;;;;;;119690;1193;24696;-60
2023/06/25 04:23:11;;;;;;;;;7.67;7.33;;;;;;;;119674;1193;25378;-60
2023/06/25 04:25:39;;;;;;;;;11.50;9.00;;;;;;;;119462;1193;24870;-60
2023/06/25 04:28:14;;;;;;;;;12.00;10.50;;;;;;;;119801;1192;25690;-61
2023/06/25 04:30:42;;;;;;;;;9.33;8.33;;;;;;;;119905;1192;25161;-60
2023/06/25 04:33:11;;;;;;;;;11.33;11.33;;;;;;;;119861;1192;25333;-60
2023/06/25 04:35:39;;;;;;;;;10.50;10.50;;;;;;;;119864;1184;24842;-60
2023/06/25 04:38:07;;;;;;;;;10.50;10.00;;;;;;;;119752;1192;25143;-60
2023/06/25 04:40:36;;;;;;;;;12.00;9.50;;;;;;;;119862;1192;24763;-61
2023/06/25 04:43:04;;;;;;;;;13.00;12.00;;;;;;;;119854;1183;25548;-61
2023/06/25 04:45:32;;;;;;;;;10.00;8.50;;;;;;;;119690;1193;25233;-61
2023/06/25 04:48:01;;;;;;;;;11.00;9.33;;;;;;;;119690;1193;25439;-61
2023/06/25 04:50:29;;;;;;;;;11.50;9.00;;;;;;;;119502;1186;25278;-60
2023/06/25 04:52:58;;;;;;;;;7.33;6.67;;;;;;;;119864;1192;25152;-60
2023/06/25 04:55:28;;;;;;;;;13.00;11.00;;;;;;;;119879;1192;25633;-60
2023/06/25 04:57:56;;;;;;;;;10.25;8.75;;;;;;;;119470;1192;25017;-61
2023/06/25 05:00:25;;;;;;;;;7.00;7.00;;;;;;;;119875;1192;24869;-60
2023/06/25 05:02:53;;;;;;;;;10.00;8.00;;;;;;;;119849;1192;25614;-61
2023/06/25 05:05:21;;;;;;;;;7.50;7.50;;;;;;;;119817;1192;25194;-61
2023/06/25 05:07:50;;;;;;;;;8.67;8.67;;;;;;;;119450;1193;24703;-61
2023/06/25 05:10:19;;;;;;;;;9.50;8.00;;;;;;;;119844;1192;25334;-61
2023/06/25 05:12:47;;;;;;;;;7.00;7.00;;;;;;;;119502;1192;25531;-61
2023/06/25 05:15:16;;;;;;;;;11.75;8.75;;;;;;;;119734;1192;25220;-61
2023/06/25 05:17:44;;;;;;;;;11.50;11.50;;;;;;;;119877;1192;25431;-60
2023/06/25 05:20:13;;;;;;;;;9.00;9.00;;;;;;;;119828;1192;25634;-61
2023/06/25 05:22:41;;;;;;;;;10.00;8.00;;;;;;;;119696;1186;24879;-62
2023/06/25 05:25:09;;;;;;;;;9.33;9.33;;;;;;;;119869;1192;25601;-61
2023/06/25 05:27:38;;;;;;;;;13.00;9.00;;;;;;;;119719;1192;25360;-60
2023/06/25 05:30:07;;;;;;;;;11.00;10.00;;;;;;;;119677;1193;25179;-60
2023/06/25 05:32:35;;;;;;;;;9.00;9.00;;;;;;;;119809;1183;25120;-61
2023/06/25 05:35:04;;;;;;;;;11.50;10.00;;;;;;;;119858;1192;25019;-61
2023/06/25 05:37:32;;;;;;;;;9.00;8.00;;;;;;;;119692;1185;24756;-61
2023/06/25 05:40:00;;;;;;;;;10.00;9.67;;;;;;;;119677;1193;25285;-62
2023/06/25 05:42:29;;;;;;;;;10.67;8.00;;;;;;;;119694;1193;25695;-62
2023/06/25 05:44:57;;;;;;;;;10.50;7.50;;;;;;;;119686;1185;25730;-61
2023/06/25 05:47:25;;;;;;;;;11.00;10.00;;;;;;;;119445;1193;24697;-62
2023/06/25 05:49:54;;;;;;;;;11.33;11.00;;;;;;;;119683;1190;25471;-61
2023/06/25 05:52:22;;;;;;;;;8.75;7.50;;;;;;;;119773;1184;25004;-62
2023/06/25 05:54:50;;;;;;;;;9.33;9.33;;;;;;;;119777;1183;25644;-62
2023/06/25 05:57:19;;;;;;;;;8.00;8.00;;;;;;;;119863;1192;25324;-62
2023/06/25 05:59:47;;;;;;;;;8.50;8.00;;;;;;;;119792;1192;24829;-63
2023/06/25 06:02:15;;;;;;;;;7.50;7.50;;;;;;;;119870;1184;25289;-61
2023/06/25 06:04:44;;;;;;;;;10.33;8.33;;;;;;;;119512;1192;25665;-61
2023/06/25 06:07:13;;;;;;;;;11.00;9.00;;;;;;;;119473;1186;25608;-67
2023/06/25 06:09:41;;;;;;;;;6.00;6.00;;;;;;;;119823;1192;25235;-67
2023/06/25 06:12:09;;;;;;;;;9.50;9.50;;;;;;;;119510;1192;25492;-64
2023/06/25 06:14:38;;;;;;;;;11.00;8.00;;;;;;;;119471;1192;26164;-68
2023/06/25 06:17:09;;;;;;;;;12.00;9.00;;;;;;;;119779;1180;25552;-68
2023/06/25 06:19:38;;;;;;;;;9.00;7.50;;;;;;;;119897;1192;25339;-67
2023/06/25 06:22:06;;;;;;;;;9.00;7.00;;;;;;;;119843;1192;25110;-69
2023/06/25 06:24:35;;;;;;;;;10.00;9.00;;;;;;;;119887;1192;25164;-68
2023/06/25 06:27:03;;;;;;;;;9.00;8.00;;;;;;;;119476;1192;24933;-66
2023/06/25 06:29:32;;;;;;;;;13.00;12.50;;;;;;;;119894;1192;25627;-66
2023/06/25 06:32:00;;;;;;;;;11.75;9.25;;;;;;;;119864;1192;25110;-66
2023/06/25 06:34:28;;;;;;;;;10.00;10.00;;;;;;;;119496;1192;25411;-66
2023/06/25 06:36:57;;;;;;;;;10.00;8.00;;;;;;;;119855;1192;25390;-67
2023/06/25 06:39:25;;;;;;;;;8.67;8.67;;;;;;;;119866;1184;24879;-67
2023/06/25 06:41:53;;;;;;;;;12.00;10.67;;;;;;;;119475;1192;25372;-67
2023/06/25 06:44:22;;;;;;;;;7.25;7.25;;;;;;;;119860;1192;25001;-66
2023/06/25 06:46:50;;;;;;;;;10.00;8.33;;;;;;;;119871;1192;25050;-67
2023/06/25 06:49:19;;;;;;;;;11.00;8.00;;;;;;;;119847;1192;24853;-68
2023/06/25 06:51:47;;;;;;;;;7.67;7.33;;;;;;;;119884;1184;25196;-67
2023/06/25 06:54:16;;;;;;;;;9.33;7.67;;;;;;;;119493;1192;25548;-67
2023/06/25 06:56:44;;;;;;;;;8.00;7.50;;;;;;;;119847;1192;25600;-68
2023/06/25 06:59:12;;;;;;;;;10.00;8.33;;;;;;;;119908;1183;24901;-68
2023/06/25 07:01:41;;;;;;;;;10.25;8.50;;;;;;;;119887;1192;25068;-67
2023/06/25 07:04:09;;;;;;;;;6.33;6.33;;;;;;;;119869;1180;24800;-69
2023/06/25 07:06:37;;;;;;;;;8.00;7.00;;;;;;;;119888;1183;25630;-70
2023/06/25 07:09:06;;;;;;;;;9.67;8.33;;;;;;;;119875;1183;24882;-65
2023/06/25 07:11:34;;;;;;;;;8.00;8.00;;;;;;;;119869;1192;25066;-66
2023/06/25 07:14:02;;;;;;;;;9.00;7.33;;;;;;;;119856;1184;25328;-65
2023/06/25 07:16:31;;;;;;;;;10.50;8.00;;;;;;;;119872;1192;25257;-66
2023/06/25 07:18:59;;;;;;;;;11.67;7.67;;;;;;;;119878;1192;25368;-65
2023/06/25 07:21:27;;;;;;;;;11.50;8.50;;;;;;;;119890;1184;25592;-65
2023/06/25 07:23:56;;;;;;;;;9.00;9.00;;;;;;;;119846;1192;25247;-65
2023/06/25 07:26:25;;;;;;;;;9.50;7.50;;;;;;;;119872;1192;25328;-65
2023/06/25 07:28:53;;;;;;;;;17.00;11.00;;;;;;;;119728;1192;24698;-65
2023/06/25 07:31:21;;;;;;;;;8.50;8.50;;;;;;;;119867;1192;25689;-65
2023/06/25 07:33:50;;;;;;;;;9.00;8.00;;;;;;;;119846;1192;25683;-67
2023/06/25 07:36:18;;;;;;;;;12.75;10.50;;;;;;;;119892;1192;24857;-66
2023/06/25 07:38:46;;;;;;;;;11.00;10.00;;;;;;;;119898;1184;24935;-66
2023/06/25 07:41:15;;;;;;;;;11.75;11.75;;;;;;;;119877;1192;24821;-67
2023/06/25 07:43:43;;;;;;;;;10.67;10.67;;;;;;;;119842;1192;25480;-66
2023/06/25 07:46:11;;;;;;;;;10.00;9.00;;;;;;;;119884;1183;25044;-66
2023/06/25 07:48:40;;;;;;;;;13.00;10.00;;;;;;;;119873;1192;25554;-66
2023/06/25 07:51:08;;;;;;;;;12.33;12.33;;;;;;;;119880;1192;25483;-66
2023/06/25 07:53:36;;;;;;;;;10.50;8.50;;;;;;;;119862;1184;25509;-66
2023/06/25 07:56:05;;;;;;;;;16.00;12.33;;;;;;;;119865;1192;25694;-66
2023/06/25 07:58:33;;;;;;;;;11.50;11.00;;;;;;;;119486;1186;25583;-66
2023/06/25 08:01:02;;;;;;;;;13.33;13.00;;;;;;;;119857;1192;25034;-66
2023/06/25 08:03:30;;;;;;;;;12.00;10.50;;;;;;;;119885;1192;25310;-66
2023/06/25 08:05:59;;;;;;;;;14.00;12.67;;;;;;;;119874;1184;25565;-66
2023/06/25 08:08:28;;;;;;;;;12.00;10.00;;;;;;;;119858;1183;25489;-65
2023/06/25 08:10:56;;;;;;;;;11.33;9.67;;;;;;;;119721;1192;25562;-66
2023/06/25 08:13:24;;;;;;;;;15.00;12.00;;;;;;;;119875;1183;25315;-66
2023/06/25 08:15:54;;;;;;;;;16.00;11.67;;;;;;;;119906;1192;24957;-66
2023/06/25 08:18:22;;;;;;;;;11.33;9.67;;;;;;;;119508;1181;25141;-66
2023/06/25 08:20:51;;;;;;;;;10.00;9.50;;;;;;;;119872;1192;25631;-66
2023/06/25 08:23:19;;;;;;;;;15.00;12.00;;;;;;;;119859;1183;25321;-66
2023/06/25 08:25:48;;;;;;;;;12.33;9.33;;;;;;;;119890;1189;24770;-66
2023/06/25 08:28:16;;;;;;;;;10.00;10.00;;;;;;;;119870;1192;24705;-67
2023/06/25 08:30:44;;;;;;;;;10.00;10.00;;;;;;;;119864;1192;25157;-64
2023/06/25 08:33:13;;;;;;;;;9.00;8.75;;;;;;;;119852;1191;24841;-64
2023/06/25 08:35:41;;;;;;;;;11.50;11.50;;;;;;;;119843;1192;24986;-64
2023/06/25 08:38:10;;;;;;;;;11.00;9.00;;;;;;;;119895;1192;25418;-63
2023/06/25 08:40:40;;;;;;;;;15.00;11.50;;;;;;;;119715;1192;24898;-64
2023/06/25 08:43:09;;;;;;;;;12.00;11.50;;;;;;;;119863;1184;25218;-64
2023/06/25 08:45:37;;;;;;;;;9.00;9.00;;;;;;;;119732;1189;24673;-66
2023/06/25 08:48:12;;;;;;;;;11.00;10.00;;;;;;;;119901;1192;25686;-66
2023/06/25 08:50:42;;;;;;;;;21.00;12.33;;;;;;;;119864;1192;25381;-67
2023/06/25 08:53:10;;;;;;;;;10.67;10.67;;;;;;;;119491;1185;25521;-67
2023/06/25 08:55:40;;;;;;;;;11.00;8.00;;;;;;;;119851;1183;24946;-66
2023/06/25 08:58:08;;;;;;;;;9.67;9.33;;;;;;;;119502;1192;24812;-64
2023/06/25 09:00:37;;;;;;;;;12.50;12.00;;;;;;;;119868;1184;24813;-64
2023/06/25 09:03:06;;;;;;;;;15.50;13.00;;;;;;;;119863;1192;25614;-65
2023/06/25 09:05:35;;;;;;;;;12.75;12.75;;;;;;;;119872;1184;25565;-64
2023/06/25 09:08:05;;;;;;;;;12.00;12.00;;;;;;;;119854;1192;25623;-64
2023/06/25 09:10:36;;;;;;;;;11.00;11.00;;;;;;;;119834;1183;24922;-65
2023/06/25 09:13:06;;;;;;;;;12.50;10.50;;;;;;;;119717;1186;24931;-65
2023/06/25 09:15:35;;;;;;;;;12.50;12.50;;;;;;;;119879;1183;24899;-64
2023/06/25 09:18:03;;;;;;;;;8.50;7.50;;;;;;;;119862;1192;24948;-65
2023/06/25 09:20:32;;;;;;;;;8.33;7.33;;;;;;;;119693;1192;25003;-65
2023/06/25 09:23:04;;;;;;;;;12.00;9.00;;;;;;;;119866;1192;24980;-65
2023/06/25 09:25:33;;;;;;;;;11.00;10.67;;;;;;;;119865;1192;24777;-65
2023/06/25 09:28:03;;;;;;;;;6.00;6.00;;;;;;;;119489;1192;25754;-65
2023/06/25 09:30:34;;;;;;;;;10.33;10.00;;;;;;;;119481;1192;24834;-64
2023/06/25 09:33:05;;;;;;;;;14.67;9.00;;;;;;;;119850;1183;25443;-64
2023/06/25 09:35:34;;;;;;;;;9.50;9.50;;;;;;;;119871;1189;25598;-65
2023/06/25 09:38:02;;;;;;;;;12.33;11.33;;;;;;;;119872;1192;25614;-65
2023/06/25 09:40:31;;;;;;;;;9.00;8.67;;;;;;;;119496;1192;25216;-65
2023/06/25 09:43:00;;;;;;;;;13.33;11.67;;;;;;;;119475;1192;25378;-65
2023/06/25 09:45:28;;;;;;;;;11.00;10.75;;;;;;;;119477;1192;25257;-65
2023/06/25 09:47:57;;;;;;;;;12.50;10.00;;;;;;;;119873;1188;24845;-64
2023/06/25 09:50:38;;;;;;;;;12.50;12.50;;;;;;;;119857;1192;25531;-65
2023/06/25 09:53:12;;;;;;;;;14.00;10.75;;;;;;;;119883;1192;25760;-65
2023/06/25 09:55:41;;;;;;;;;13.50;12.50;;;;;;;;119500;1186;25059;-65
2023/06/25 09:58:09;;;;;;;;;15.33;13.67;;;;;;;;119464;1190;24804;-65
2023/06/25 10:00:38;;;;;;;;;14.50;14.25;;;;;;;;119482;1192;25621;-64
2023/06/25 10:03:07;;;;;;;;;14.50;13.00;;;;;;;;119469;1192;24971;-64
2023/06/25 10:05:37;;;;;;;;;14.00;13.00;;;;;;;;119856;1192;25353;-64
2023/06/25 10:08:06;;;;;;;;;17.00;15.33;;;;;;;;119512;1192;24962;-64
2023/06/25 10:10:34;;;;;;;;;10.00;10.00;;;;;;;;119838;1184;24696;-65
2023/06/25 10:13:05;;;;;;;;;15.00;15.00;;;;;;;;119862;1192;25663;-64
2023/06/25 10:15:35;;;;;;;;;14.00;13.00;;;;;;;;119877;1192;25503;-65
2023/06/25 10:18:06;;;;;;;;;13.25;12.00;;;;;;;;119429;1193;25725;-64
2023/06/25 10:20:36;;;;;;;;;17.50;16.00;;;;;;;;119471;1193;25911;-64
2023/06/25 10:23:12;;;;;;;;;16.00;13.00;;;;;;;;119673;1193;24856;-63
2023/06/25 10:25:52;;;;;;;;;17.50;16.00;;;;;;;;119464;1193;25235;-63
2023/06/25 10:28:29;;;;;;;;;13.00;13.00;;;;;;;;119705;1185;25141;-62
2023/06/25 10:31:12;;;;;;;;;20.33;13.33;;;;;;;;119662;1193;24868;-64
2023/06/25 10:33:42;;;;;;;;;15.67;13.00;;;;;;;;119419;1193;25634;-64
2023/06/25 10:36:11;;;;;;;;;15.00;15.00;;;;;;;;119469;1185;24950;-63
2023/06/25 10:38:40;;;;;;;;;16.00;14.00;;;;;;;;119672;1193;25397;-64
2023/06/25 10:41:08;;;;;;;;;12.00;10.00;;;;;;;;119435;1193;24732;-64
2023/06/25 10:43:37;;;;;;;;;11.00;11.00;;;;;;;;119676;1193;25185;-63
2023/06/25 10:46:05;;;;;;;;;15.50;13.50;;;;;;;;119469;1192;25681;-64
2023/06/25 10:48:34;;;;;;;;;13.33;12.33;;;;;;;;119849;1187;24991;-65
2023/06/25 10:51:02;;;;;;;;;15.00;11.00;;;;;;;;119860;1183;25443;-64
2023/06/25 10:53:31;;;;;;;;;18.00;12.00;;;;;;;;119503;1184;25452;-65
2023/06/25 10:55:59;;;;;;;;;13.00;11.67;;;;;;;;119870;1188;25249;-64
2023/06/25 10:58:28;;;;;;;;;14.25;11.75;;;;;;;;119486;1192;25648;-64
2023/06/25 11:00:57;;;;;;;;;15.00;14.00;;;;;;;;119840;1192;25947;-63
2023/06/25 11:03:26;;;;;;;;;18.00;14.00;;;;;;;;119518;1186;24962;-63
2023/06/25 11:05:57;;;;;;;;;16.33;12.00;;;;;;;;119722;1191;24737;-63
2023/06/25 11:08:25;;;;;;;;;14.00;11.00;;;;;;;;119486;1192;25794;-63
2023/06/25 11:10:54;;;;;;;;;21.33;11.33;;;;;;;;119680;1192;24811;-64
2023/06/25 11:13:22;;;;;;;;;11.00;9.00;;;;;;;;119694;1192;25370;-66
2023/06/25 11:15:51;;;;;;;;;12.67;11.33;;;;;;;;119471;1185;25426;-68
2023/06/25 11:18:21;;;;;;;;;19.33;18.67;;;;;;;;119460;1193;25360;-70
2023/06/25 11:20:49;;;;;;;;;23.50;20.50;;;;;;;;119453;1193;25213;-69
2023/06/25 11:23:18;;;;;;;;;24.50;18.00;;;;;;;;119467;1185;25652;-69
2023/06/25 11:25:46;;;;;;;;;17.00;14.00;;;;;;;;119441;1193;25376;-70
2023/06/25 11:28:15;;;;;;;;;21.50;16.50;;;;;;;;119688;1193;25634;-70
2023/06/25 11:30:44;;;;;;;;;18.00;17.50;;;;;;;;119407;1193;25522;-70
2023/06/25 11:33:15;;;;;;;;;26.00;20.33;;;;;;;;119695;1185;24899;-69
2023/06/25 11:35:49;;;;;;;;;18.00;15.00;;;;;;;;119447;1186;25219;-68
2023/06/25 11:38:29;;;;;;;;;18.33;15.67;;;;;;;;119481;1186;24892;-70
2023/06/25 11:40:58;;;;;;;;;17.50;15.00;;;;;;;;119476;1186;25532;-71
2023/06/25 11:43:27;;;;;;;;;17.00;14.00;;;;;;;;119462;1185;25644;-70
2023/06/25 11:46:01;;;;;;;;;18.00;17.00;;;;;;;;119447;1193;26737;-69
2023/06/25 11:48:30;;;;;;;;;14.50;13.00;;;;;;;;119683;1185;25416;-69
2023/06/25 11:51:05;;;;;;;;;15.50;14.75;;;;;;;;119692;1193;24895;-69
2023/06/25 11:53:34;;;;;;;;;18.50;15.50;;;;;;;;119455;1185;25120;-67
2023/06/25 11:56:02;;;;;;;;;18.00;15.00;;;;;;;;119456;1193;24921;-66
2023/06/25 11:58:31;;;;;;;;;13.00;10.00;;;;;;;;119693;1185;25886;-65
2023/06/25 12:00:59;;;;;;;;;17.00;14.67;;;;;;;;119691;1193;24771;-66
2023/06/25 12:03:30;;;;;;;;;27.00;25.00;;;;;;;;119448;1193;25581;-65
2023/06/25 12:05:58;;;;;;;;;76.00;56.50;;;;;;;;119674;1184;26745;-67
2023/06/25 12:08:27;;;;;;;;;82.00;75.33;;;;;;;;119706;1184;25467;-65
2023/06/25 12:10:55;;;;;;;;;84.25;73.50;;;;;;;;119680;1193;24868;-66
2023/06/25 12:13:24;;;;;;;;;87.00;73.00;;;;;;;;119455;1193;24982;-66
2023/06/25 12:15:52;;;;;;;;;83.00;74.00;;;;;;;;119690;1185;25597;-66
2023/06/25 12:18:22;;;;;;;;;87.67;78.33;;;;;;;;119691;1193;24777;-66
2023/06/25 12:20:50;;;;;;;;;90.00;80.00;;;;;;;;119671;1185;25377;-66
2023/06/25 12:23:19;;;;;;;;;82.33;72.67;;;;;;;;119451;1193;25412;-67
2023/06/25 12:25:47;;;;;;;;;85.00;75.00;;;;;;;;119450;1185;24842;-66
2023/06/25 12:28:16;;;;;;;;;93.67;88.00;;;;;;;;119673;1185;25630;-67
2023/06/25 12:30:44;;;;;;;;;89.00;83.00;;;;;;;;119664;1193;25568;-67
2023/06/25 12:33:12;;;;;;;;;96.00;86.00;;;;;;;;119682;1193;25211;-68
2023/06/25 12:35:41;;;;;;;;;87.00;76.00;;;;;;;;119478;1185;25182;-67
2023/06/25 12:38:10;;;;;;;;;86.00;80.00;;;;;;;;119696;1185;25661;-67
2023/06/25 12:40:39;;;;;;;;;85.50;75.50;;;;;;;;119673;1193;25672;-66
2023/06/25 12:43:07;;;;;;;;;83.33;74.67;;;;;;;;119677;1185;25503;-67
2023/06/25 12:45:35;;;;;;;;;76.00;67.00;;;;;;;;119682;1193;24716;-66
2023/06/25 12:48:04;;;;;;;;;78.00;63.67;;;;;;;;119455;1193;25444;-70
2023/06/25 12:50:33;;;;;;;;;76.00;60.00;;;;;;;;119685;1193;25484;-70
2023/06/25 12:53:02;;;;;;;;;75.50;59.50;;;;;;;;119655;1193;25073;-67
2023/06/25 12:55:30;;;;;;;;;74.67;57.67;;;;;;;;119683;1185;25393;-65
2023/06/25 12:57:58;;;;;;;;;71.67;56.67;;;;;;;;119691;1193;25270;-65
2023/06/25 13:00:27;;;;;;;;;67.00;54.00;;;;;;;;119696;1193;25176;-79
2023/06/25 13:03:16;;;;;;;;;67.00;53.00;;;;;;;;119673;1193;25519;-66
2023/06/25 13:05:45;;;;;;;;;66.00;50.00;;;;;;;;119689;1185;24901;-67
2023/06/25 13:08:14;;;;;;;;;61.00;48.00;;;;;;;;119433;1193;25545;-67
2023/06/25 13:10:43;;;;;;;;;63.00;48.00;;;;;;;;119463;1193;25559;-66
2023/06/25 13:13:11;;;;;;;;;60.50;46.50;;;;;;;;119448;1185;25167;-67
2023/06/25 13:15:39;;;;;;;;;59.67;48.33;;;;;;;;119681;1193;25597;-65
2023/06/25 13:18:10;;;;;;;;;57.00;44.00;;;;;;;;119680;1193;25086;-65
2023/06/25 13:20:39;;;;;;;;;61.00;47.00;;;;;;;;119705;1193;25628;-69
2023/06/25 13:23:07;;;;;;;;;53.00;43.00;;;;;;;;119695;1193;25305;-69
2023/06/25 13:25:39;;;;;;;;;57.00;44.00;;;;;;;;119669;1193;24688;-74
2023/06/25 13:28:07;;;;;;;;;61.50;43.00;;;;;;;;119697;1193;25477;-75
2023/06/25 13:30:36;;;;;;;;;56.00;44.00;;;;;;;;119454;1193;25099;-75
2023/06/25 13:33:05;;;;;;;;;56.00;43.50;;;;;;;;119682;1185;25726;-71
2023/06/25 13:35:33;;;;;;;;;54.00;44.00;;;;;;;;119739;1185;25664;-73
2023/06/25 13:38:02;;;;;;;;;55.33;43.67;;;;;;;;119763;1192;24819;-74
2023/06/25 13:40:30;;;;;;;;;52.33;39.00;;;;;;;;119797;1183;25163;-70
2023/06/25 13:43:01;;;;;;;;;44.00;36.67;;;;;;;;119875;1192;25447;-71
2023/06/25 13:45:30;;;;;;;;;50.00;39.50;;;;;;;;119655;1189;25548;-73
2023/06/25 13:47:58;;;;;;;;;49.50;36.50;;;;;;;;119762;1192;24792;-72
2023/06/25 13:50:27;;;;;;;;;55.75;41.25;;;;;;;;119709;1192;25288;-68
2023/06/25 13:52:55;;;;;;;;;42.00;33.00;;;;;;;;119862;1183;24921;-67
2023/06/25 13:55:23;;;;;;;;;52.33;39.67;;;;;;;;119873;1192;25767;-66
2023/06/25 13:57:52;;;;;;;;;53.33;40.67;;;;;;;;119880;1188;25414;-67
2023/06/25 14:00:21;;;;;;;;;48.00;38.00;;;;;;;;119831;1183;25333;-66
2023/06/25 14:02:49;;;;;;;;;44.00;33.00;;;;;;;;119884;1192;25025;-67
2023/06/25 14:05:35;;;;;;;;;41.67;34.67;;;;;;;;119872;1192;24985;-67
2023/06/25 14:08:04;;;;;;;;;49.50;36.50;;;;;;;;119862;1188;24923;-68
2023/06/25 14:10:34;;;;;;;;;39.67;34.33;;;;;;;;119885;1192;25665;-67
2023/06/25 14:13:03;;;;;;;;;43.25;34.50;;;;;;;;119904;1192;25317;-67
2023/06/25 14:15:31;;;;;;;;;38.00;33.33;;;;;;;;119877;1192;24768;-66
2023/06/25 14:17:59;;;;;;;;;39.00;33.50;;;;;;;;119714;1185;24962;-67
2023/06/25 14:20:28;;;;;;;;;33.50;29.50;;;;;;;;119653;1193;24789;-67
2023/06/25 14:22:58;;;;;;;;;36.00;33.00;;;;;;;;119647;1193;25004;-66